createdAt,value
2022-08-31T00:00:15.563Z,99.90
2022-08-31T00:03:01.567Z,99.90
2022-08-31T00:05:28.762Z,99.90
2022-08-31T00:07:55.901Z,99.90
2022-08-31T00:10:32.389Z,99.90
2022-08-31T00:13:04.243Z,99.90
2022-08-31T00:15:31.156Z,99.90
2022-08-31T00:17:58.545Z,99.90
2022-08-31T00:20:32.426Z,99.90
2022-08-31T00:23:06.697Z,99.90
2022-08-31T00:25:34.680Z,99.90
2022-08-31T00:28:02.155Z,99.90
2022-08-31T00:30:29.716Z,99.90
2022-08-31T00:32:57.162Z,99.90
2022-08-31T00:35:27.223Z,99.90
2022-08-31T00:37:54.269Z,99.90
2022-08-31T00:40:21.438Z,99.90
2022-08-31T00:42:48.390Z,99.90
2022-08-31T00:45:15.928Z,99.90
2022-08-31T00:47:43.108Z,99.90
2022-08-31T00:50:13.120Z,99.90
2022-08-31T00:52:43.267Z,99.90
2022-08-31T00:55:13.869Z,99.90
2022-08-31T00:57:45.670Z,99.90
2022-08-31T01:00:17.476Z,99.90
2022-08-31T01:02:45.924Z,99.90
2022-08-31T01:05:14.300Z,99.90
2022-08-31T01:07:41.598Z,99.90
2022-08-31T01:10:10.241Z,99.90
2022-08-31T01:12:37.695Z,99.90
2022-08-31T01:15:08.466Z,99.90
2022-08-31T01:17:36.743Z,99.90
2022-08-31T01:20:06.360Z,99.90
2022-08-31T01:22:44.448Z,99.90
2022-08-31T01:25:12.952Z,99.90
2022-08-31T01:27:40.219Z,99.90
2022-08-31T01:30:10.706Z,99.90
2022-08-31T01:32:39.592Z,99.90
2022-08-31T01:35:07.846Z,99.90
2022-08-31T01:37:38.785Z,99.90
2022-08-31T01:40:08.310Z,99.90
2022-08-31T01:42:36.144Z,99.90
2022-08-31T01:45:06.674Z,99.90
2022-08-31T01:47:34.458Z,99.90
2022-08-31T01:50:01.631Z,99.90
2022-08-31T01:52:29.535Z,99.90
2022-08-31T01:54:56.706Z,99.90
2022-08-31T01:57:30.887Z,99.90
2022-08-31T02:00:24.180Z,99.90
2022-08-31T02:02:51.061Z,99.90
2022-08-31T02:05:19.687Z,99.90
2022-08-31T02:07:46.961Z,99.90
2022-08-31T02:10:14.098Z,99.90
2022-08-31T02:12:41.886Z,99.90
2022-08-31T02:15:10.636Z,99.90
2022-08-31T02:17:37.492Z,99.90
2022-08-31T02:20:08.399Z,99.90
2022-08-31T02:22:35.352Z,99.90
2022-08-31T02:25:02.597Z,99.90
2022-08-31T02:27:29.433Z,99.90
2022-08-31T02:29:56.334Z,99.90
2022-08-31T02:32:23.687Z,99.90
2022-08-31T02:34:50.833Z,99.90
2022-08-31T02:37:18.378Z,99.90
2022-08-31T02:39:48.680Z,99.90
2022-08-31T02:42:17.006Z,99.90
2022-08-31T02:44:45.358Z,99.90
2022-08-31T02:47:12.166Z,99.90
2022-08-31T02:49:49.492Z,99.90
2022-08-31T02:52:16.341Z,99.90
2022-08-31T02:54:43.256Z,99.90
2022-08-31T02:57:12.120Z,99.90
2022-08-31T02:59:39.181Z,99.90
2022-08-31T03:02:09.775Z,99.90
2022-08-31T03:04:38.586Z,99.90
2022-08-31T03:07:05.550Z,99.90
2022-08-31T03:09:32.742Z,99.90
2022-08-31T03:12:00.180Z,99.90
2022-08-31T03:14:27.742Z,99.90
2022-08-31T03:16:55.968Z,99.90
2022-08-31T03:19:22.811Z,99.90
2022-08-31T03:21:54.672Z,99.90
2022-08-31T03:24:27.401Z,99.90
2022-08-31T03:26:55.766Z,99.90
2022-08-31T03:29:22.547Z,99.90
2022-08-31T03:31:55.121Z,99.90
2022-08-31T03:34:22.560Z,99.90
2022-08-31T03:36:49.386Z,99.90
2022-08-31T03:39:16.254Z,99.90
2022-08-31T03:41:43.267Z,99.90
2022-08-31T03:44:10.265Z,99.90
2022-08-31T03:46:44.568Z,99.90
2022-08-31T03:49:12.398Z,99.90
2022-08-31T03:51:45.709Z,99.90
2022-08-31T03:54:13.039Z,99.90
2022-08-31T03:56:40.897Z,99.90
2022-08-31T03:59:10.806Z,99.90
2022-08-31T04:01:56.630Z,99.90
2022-08-31T04:04:42.125Z,99.90
2022-08-31T04:07:42.441Z,99.90
2022-08-31T04:10:28.508Z,99.90
2022-08-31T04:13:15.570Z,99.90
2022-08-31T04:16:01.149Z,99.90
2022-08-31T04:18:47.502Z,99.90
2022-08-31T04:21:22.854Z,99.90
2022-08-31T04:23:51.640Z,99.90
2022-08-31T04:26:21.261Z,99.90
2022-08-31T04:28:48.192Z,99.90
2022-08-31T04:31:16.140Z,99.90
2022-08-31T04:33:43.799Z,99.90
2022-08-31T04:36:25.193Z,99.90
2022-08-31T04:38:56.555Z,99.90
2022-08-31T04:41:26.520Z,99.90
2022-08-31T04:43:58.626Z,99.90
2022-08-31T04:46:27.448Z,99.90
2022-08-31T04:48:55.952Z,99.90
2022-08-31T04:51:29.406Z,99.90
2022-08-31T04:53:56.671Z,99.90
2022-08-31T04:56:26.731Z,99.90
2022-08-31T04:59:05.578Z,99.90
2022-08-31T05:01:42.766Z,99.90
2022-08-31T05:04:19.557Z,99.90
2022-08-31T05:06:47.515Z,99.90
2022-08-31T05:09:18.955Z,99.90
2022-08-31T05:11:50.419Z,99.90
2022-08-31T05:14:18.172Z,99.90
2022-08-31T05:16:51.250Z,99.90
2022-08-31T05:19:20.286Z,99.90
2022-08-31T05:21:47.949Z,99.90
2022-08-31T05:24:20.228Z,99.90
2022-08-31T05:26:57.396Z,99.90
2022-08-31T05:29:25.779Z,99.90
2022-08-31T05:32:12.926Z,99.90
2022-08-31T05:34:39.895Z,99.90
2022-08-31T05:37:06.778Z,99.90
2022-08-31T05:39:34.930Z,99.90
2022-08-31T05:42:02.254Z,99.90
2022-08-31T05:44:29.389Z,99.90
2022-08-31T05:47:04.019Z,99.90
2022-08-31T05:49:32.576Z,99.90
2022-08-31T05:52:01.498Z,99.90
2022-08-31T05:54:30.109Z,99.90
2022-08-31T05:57:01.314Z,99.90
2022-08-31T05:59:31.037Z,99.90
2022-08-31T06:01:58.865Z,99.90
2022-08-31T06:04:28.132Z,99.90
2022-08-31T06:06:55.565Z,99.90
2022-08-31T06:09:25.746Z,99.90
2022-08-31T06:11:54.072Z,99.90
2022-08-31T06:14:24.320Z,99.90
2022-08-31T06:16:56.056Z,99.90
2022-08-31T06:19:23.011Z,99.90
2022-08-31T06:21:51.982Z,99.90
2022-08-31T06:24:26.435Z,99.90
2022-08-31T06:26:59.536Z,99.90
2022-08-31T06:29:33.025Z,99.90
2022-08-31T06:32:06.076Z,99.90
2022-08-31T06:34:33.643Z,99.90
2022-08-31T06:37:08.283Z,99.90
2022-08-31T06:40:04.733Z,99.90
2022-08-31T06:42:46.953Z,99.90
2022-08-31T06:45:47.956Z,99.90
2022-08-31T06:48:34.286Z,99.90
2022-08-31T06:51:02.069Z,99.90
2022-08-31T06:53:29.732Z,99.90
2022-08-31T06:56:20.575Z,99.90
2022-08-31T06:59:07.280Z,99.90
2022-08-31T07:01:54.795Z,99.90
2022-08-31T07:04:38.406Z,99.90
2022-08-31T07:07:08.092Z,99.90
2022-08-31T07:09:35.162Z,99.90
2022-08-31T07:12:03.764Z,99.90
2022-08-31T07:14:30.610Z,99.90
2022-08-31T07:16:59.392Z,99.90
2022-08-31T07:19:28.193Z,99.90
2022-08-31T07:21:58.917Z,99.90
2022-08-31T07:24:30.260Z,99.90
2022-08-31T07:27:04.252Z,99.90
2022-08-31T07:29:40.555Z,99.90
2022-08-31T07:32:13.471Z,99.90
2022-08-31T07:34:43.826Z,99.90
2022-08-31T07:37:57.489Z,99.90
2022-08-31T07:40:47.512Z,99.90
2022-08-31T07:43:15.607Z,99.90
2022-08-31T07:45:44.187Z,99.90
2022-08-31T07:48:16.244Z,99.90
2022-08-31T07:51:15.104Z,99.90
2022-08-31T07:53:47.587Z,99.90
2022-08-31T07:56:43.996Z,99.90
2022-08-31T07:59:15.569Z,99.90
2022-08-31T08:01:45.566Z,99.90
2022-08-31T08:04:21.733Z,99.90
2022-08-31T08:07:23.614Z,99.90
2022-08-31T08:10:14.394Z,99.90
2022-08-31T08:13:05.057Z,99.90
2022-08-31T08:16:05.067Z,99.90
2022-08-31T08:18:47.797Z,99.90
2022-08-31T08:21:18.629Z,99.90
2022-08-31T08:23:47.224Z,99.90
2022-08-31T08:26:53.479Z,99.90
2022-08-31T08:29:41.026Z,99.90
2022-08-31T08:32:16.815Z,99.90
2022-08-31T08:34:44.323Z,99.90
2022-08-31T08:37:12.213Z,99.90
2022-08-31T08:39:40.876Z,99.90
2022-08-31T08:42:15.273Z,99.90
2022-08-31T08:44:44.027Z,99.90
2022-08-31T08:47:15.457Z,99.90
2022-08-31T08:50:01.564Z,99.90
2022-08-31T08:52:42.449Z,99.90
2022-08-31T08:55:17.130Z,99.90
2022-08-31T08:57:46.609Z,99.90
2022-08-31T09:00:18.603Z,99.90
2022-08-31T09:03:04.668Z,99.90
2022-08-31T09:06:09.646Z,99.90
2022-08-31T09:09:12.068Z,99.90
2022-08-31T09:12:14.884Z,99.90
2022-08-31T09:15:02.043Z,99.90
2022-08-31T09:18:16.503Z,99.90
2022-08-31T09:21:01.337Z,99.90
2022-08-31T09:23:32.327Z,99.90
2022-08-31T09:26:07.530Z,99.90
2022-08-31T09:28:54.680Z,99.90
2022-08-31T09:31:42.189Z,99.90
2022-08-31T09:34:24.688Z,99.90
2022-08-31T09:36:54.295Z,99.90
2022-08-31T09:39:36.958Z,99.90
2022-08-31T09:42:20.436Z,99.90
2022-08-31T09:44:50.622Z,99.90
2022-08-31T09:47:43.087Z,99.90
2022-08-31T09:50:23.529Z,99.90
2022-08-31T09:53:09.791Z,99.90
2022-08-31T09:55:36.669Z,99.90
2022-08-31T09:58:07.806Z,99.90
2022-08-31T10:00:42.653Z,99.90
2022-08-31T10:03:23.466Z,99.90
2022-08-31T10:05:52.266Z,99.90
2022-08-31T10:08:59.023Z,99.90
2022-08-31T10:11:30.984Z,99.90
2022-08-31T10:14:04.392Z,99.90
2022-08-31T10:16:39.984Z,99.90
2022-08-31T10:19:17.910Z,99.90
2022-08-31T10:21:53.322Z,99.90
2022-08-31T10:24:44.643Z,99.90
2022-08-31T10:27:32.199Z,99.90
2022-08-31T10:30:08.045Z,99.90
2022-08-31T10:33:05.102Z,99.90
2022-08-31T10:35:49.200Z,99.90
2022-08-31T10:38:40.407Z,99.90
2022-08-31T10:41:33.303Z,99.90
2022-08-31T10:44:28.999Z,99.90
2022-08-31T10:47:05.688Z,99.90
2022-08-31T10:49:35.434Z,99.90
2022-08-31T10:52:18.190Z,99.90
2022-08-31T10:54:56.770Z,99.90
2022-08-31T10:57:32.310Z,99.90
2022-08-31T11:00:07.425Z,99.90
2022-08-31T11:03:00.270Z,99.90
2022-08-31T11:05:41.127Z,99.90
2022-08-31T11:08:39.729Z,99.90
2022-08-31T11:11:12.766Z,99.90
2022-08-31T11:14:17.157Z,99.90
2022-08-31T11:17:11.965Z,99.90
2022-08-31T11:19:57.507Z,99.90
2022-08-31T11:22:34.828Z,99.90
2022-08-31T11:25:25.066Z,99.90
2022-08-31T11:28:09.199Z,99.90
2022-08-31T11:30:45.665Z,99.90
2022-08-31T11:33:22.491Z,99.90
2022-08-31T11:36:06.719Z,99.90
2022-08-31T11:38:52.633Z,99.90
2022-08-31T11:41:31.533Z,99.90
2022-08-31T11:44:02.149Z,99.90
2022-08-31T11:46:28.938Z,99.20
2022-08-31T11:48:55.762Z,98.10
2022-08-31T11:51:41.464Z,96.10
2022-08-31T11:54:26.536Z,95.60
2022-08-31T11:56:56.782Z,95.70
2022-08-31T11:59:32.714Z,94.40
2022-08-31T12:02:21.332Z,94.80
2022-08-31T12:05:00.384Z,92.90
2022-08-31T12:07:34.515Z,94.70
2022-08-31T12:10:29.685Z,94.30
2022-08-31T12:13:19.597Z,92.40
2022-08-31T12:16:04.099Z,90.00
2022-08-31T12:18:52.374Z,86.70
2022-08-31T12:21:51.554Z,84.70
2022-08-31T12:24:58.138Z,83.20
2022-08-31T12:28:01.989Z,87.00
2022-08-31T12:30:29.421Z,86.30
2022-08-31T12:33:01.893Z,86.50
2022-08-31T12:35:31.651Z,86.60
2022-08-31T12:38:30.520Z,84.70
2022-08-31T12:40:57.877Z,85.80
2022-08-31T12:43:31.387Z,82.80
2022-08-31T12:46:13.186Z,83.20
2022-08-31T12:49:04.916Z,83.80
2022-08-31T12:51:43.827Z,81.50
2022-08-31T12:54:23.886Z,79.00
2022-08-31T12:56:50.620Z,78.10
2022-08-31T12:59:59.433Z,79.10
2022-08-31T13:02:27.092Z,78.60
2022-08-31T13:04:54.506Z,78.90
2022-08-31T13:07:34.655Z,79.80
2022-08-31T13:10:08.343Z,80.90
2022-08-31T13:12:37.395Z,69.80
2022-08-31T13:15:09.044Z,69.80
2022-08-31T13:17:41.346Z,72.00
2022-08-31T13:20:08.550Z,77.60
2022-08-31T13:22:42.664Z,79.70
2022-08-31T13:25:52.429Z,78.60
2022-08-31T13:28:26.149Z,77.60
2022-08-31T13:31:03.092Z,76.10
2022-08-31T13:33:40.653Z,78.80
2022-08-31T13:36:25.518Z,80.10
2022-08-31T13:38:53.193Z,76.60
2022-08-31T13:41:27.466Z,81.60
2022-08-31T13:44:05.367Z,80.20
2022-08-31T13:46:50.105Z,78.40
2022-08-31T13:49:44.251Z,76.20
2022-08-31T13:52:26.208Z,80.20
2022-08-31T13:55:09.164Z,81.60
2022-08-31T13:57:38.295Z,81.80
2022-08-31T14:00:32.753Z,81.20
2022-08-31T14:03:49.063Z,82.30
2022-08-31T14:06:24.096Z,79.00
2022-08-31T14:08:56.172Z,80.90
2022-08-31T14:11:29.001Z,78.10
2022-08-31T14:14:05.785Z,73.60
2022-08-31T14:16:36.460Z,76.50
2022-08-31T14:19:04.043Z,75.40
2022-08-31T14:21:42.154Z,74.40
2022-08-31T14:24:12.341Z,76.10
2022-08-31T14:26:41.776Z,77.80
2022-08-31T14:29:14.936Z,80.10
2022-08-31T14:31:54.982Z,75.10
2022-08-31T14:34:41.017Z,71.90
2022-08-31T14:37:11.343Z,72.30
2022-08-31T14:39:48.111Z,74.40
2022-08-31T14:42:18.687Z,74.90
2022-08-31T14:44:59.085Z,75.60
2022-08-31T14:47:31.529Z,75.70
2022-08-31T14:50:05.823Z,74.70
2022-08-31T14:52:38.457Z,75.20
2022-08-31T14:55:09.173Z,74.20
2022-08-31T14:57:39.105Z,72.50
2022-08-31T15:00:06.751Z,70.40
2022-08-31T15:02:34.679Z,70.10
2022-08-31T15:05:04.719Z,74.70
2022-08-31T15:07:34.794Z,74.70
2022-08-31T15:10:02.977Z,77.00
2022-08-31T15:12:29.955Z,77.40
2022-08-31T15:14:59.899Z,79.00
2022-08-31T15:17:33.769Z,79.50
2022-08-31T15:20:02.568Z,82.30
2022-08-31T15:22:30.099Z,81.10
2022-08-31T15:24:57.302Z,79.80
2022-08-31T15:27:28.878Z,80.00
2022-08-31T15:30:04.386Z,81.30
2022-08-31T15:32:31.557Z,82.00
2022-08-31T15:34:58.548Z,82.20
2022-08-31T15:37:31.635Z,82.80
2022-08-31T15:40:01.209Z,83.90
2022-08-31T15:42:29.671Z,84.90
2022-08-31T15:45:00.192Z,84.30
2022-08-31T15:47:52.333Z,83.80
2022-08-31T15:50:23.203Z,81.30
2022-08-31T15:52:52.137Z,80.90
2022-08-31T15:55:25.021Z,81.30
2022-08-31T15:57:55.091Z,82.00
2022-08-31T16:00:23.511Z,82.40
2022-08-31T16:02:52.651Z,82.30
2022-08-31T16:05:19.931Z,82.90
2022-08-31T16:07:46.928Z,82.10
2022-08-31T16:10:19.737Z,83.50
2022-08-31T16:12:47.726Z,83.80
2022-08-31T16:15:15.621Z,84.00
2022-08-31T16:17:42.792Z,83.50
2022-08-31T16:20:12.171Z,84.50
2022-08-31T16:22:39.465Z,85.70
2022-08-31T16:25:08.376Z,86.40
2022-08-31T16:27:35.205Z,86.80
2022-08-31T16:30:02.217Z,87.20
2022-08-31T16:32:30.282Z,87.50
2022-08-31T16:34:57.335Z,87.40
2022-08-31T16:37:25.588Z,87.40
2022-08-31T16:39:52.620Z,87.70
2022-08-31T16:42:19.512Z,88.00
2022-08-31T16:44:48.098Z,88.80
2022-08-31T16:47:17.438Z,90.00
2022-08-31T16:49:45.519Z,90.20
2022-08-31T16:52:21.218Z,90.20
2022-08-31T16:54:50.916Z,90.50
2022-08-31T16:57:21.116Z,90.50
2022-08-31T16:59:48.716Z,90.40
2022-08-31T17:02:16.857Z,90.30
2022-08-31T17:04:53.434Z,91.00
2022-08-31T17:07:22.434Z,91.40
2022-08-31T17:09:49.468Z,91.40
2022-08-31T17:12:19.071Z,91.70
2022-08-31T17:14:48.378Z,92.10
2022-08-31T17:17:21.708Z,92.60
2022-08-31T17:19:49.374Z,92.80
2022-08-31T17:22:24.577Z,93.00
2022-08-31T17:24:57.795Z,93.60
2022-08-31T17:27:26.172Z,93.70
2022-08-31T17:29:55.997Z,93.90
2022-08-31T17:32:27.456Z,94.10
2022-08-31T17:34:55.663Z,94.40
2022-08-31T17:37:27.035Z,94.80
2022-08-31T17:39:55.080Z,95.20
2022-08-31T17:42:23.583Z,95.50
2022-08-31T17:44:52.269Z,96.10
2022-08-31T17:47:21.235Z,96.50
2022-08-31T17:49:50.450Z,97.70
2022-08-31T17:52:20.236Z,98.60
2022-08-31T17:54:50.683Z,99.00
2022-08-31T17:57:18.991Z,99.80
2022-08-31T17:59:50.549Z,99.90
2022-08-31T18:02:21.082Z,99.90
2022-08-31T18:04:48.913Z,99.90
2022-08-31T18:07:16.432Z,99.90
2022-08-31T18:09:45.343Z,99.90
2022-08-31T18:12:12.646Z,99.90
2022-08-31T18:14:40.146Z,99.90
2022-08-31T18:17:10.034Z,99.90
2022-08-31T18:19:37.704Z,99.90
2022-08-31T18:22:05.021Z,99.90
2022-08-31T18:24:35.475Z,99.90
2022-08-31T18:27:09.188Z,99.90
2022-08-31T18:29:39.380Z,99.90
2022-08-31T18:32:07.950Z,99.90
2022-08-31T18:34:39.986Z,99.90
2022-08-31T18:37:07.750Z,99.90
2022-08-31T18:39:55.215Z,99.90
2022-08-31T18:42:46.987Z,99.90
2022-08-31T18:45:39.787Z,99.90
2022-08-31T18:48:25.297Z,99.90
2022-08-31T18:50:53.707Z,99.90
2022-08-31T18:53:29.535Z,99.90
2022-08-31T18:55:59.511Z,99.90
2022-08-31T18:58:26.511Z,99.90
2022-08-31T19:00:57.314Z,99.90
2022-08-31T19:03:25.682Z,99.90
2022-08-31T19:05:52.462Z,99.90
2022-08-31T19:08:19.433Z,99.90
2022-08-31T19:10:46.815Z,99.90
2022-08-31T19:13:16.350Z,99.90
2022-08-31T19:15:43.732Z,99.90
2022-08-31T19:18:10.589Z,99.90
2022-08-31T19:20:37.431Z,99.90
2022-08-31T19:23:04.402Z,99.90
2022-08-31T19:25:35.083Z,99.90
2022-08-31T19:28:06.450Z,99.90
2022-08-31T19:30:33.765Z,99.90
2022-08-31T19:33:03.584Z,99.90
2022-08-31T19:35:30.361Z,99.90
2022-08-31T19:37:57.165Z,99.90
2022-08-31T19:40:42.652Z,99.90
2022-08-31T19:46:09.514Z,99.90
2022-08-31T19:48:46.070Z,99.90
2022-08-31T19:51:15.523Z,99.90
2022-08-31T19:53:44.916Z,99.90
2022-08-31T19:56:23.188Z,99.90
2022-08-31T19:58:53.447Z,99.90
2022-08-31T20:01:25.578Z,99.90
2022-08-31T20:03:54.541Z,99.90
2022-08-31T20:06:23.009Z,99.90
2022-08-31T20:08:51.194Z,99.90
2022-08-31T20:11:22.191Z,99.90
2022-08-31T20:13:50.362Z,99.90
2022-08-31T20:16:19.849Z,99.90
2022-08-31T20:18:48.524Z,99.90
2022-08-31T20:21:21.460Z,99.90
2022-08-31T20:23:55.905Z,99.90
2022-08-31T20:26:26.115Z,99.90
2022-08-31T20:29:04.015Z,99.90
2022-08-31T20:31:32.826Z,99.90
2022-08-31T20:33:59.867Z,99.90
2022-08-31T20:36:32.462Z,99.90
2022-08-31T20:39:07.728Z,99.90
2022-08-31T20:41:37.829Z,99.90
2022-08-31T20:44:10.613Z,99.90
2022-08-31T20:46:59.898Z,99.90
2022-08-31T20:49:28.864Z,99.90
2022-08-31T20:51:57.819Z,99.90
2022-08-31T20:54:30.849Z,99.90
2022-08-31T20:57:00.849Z,99.90
2022-08-31T20:59:28.320Z,99.90
2022-08-31T21:02:03.162Z,99.90
2022-08-31T21:04:31.988Z,99.90
2022-08-31T21:07:00.407Z,99.90
2022-08-31T21:09:27.675Z,99.90
2022-08-31T21:11:56.697Z,99.90
2022-08-31T21:14:27.449Z,99.90
2022-08-31T21:16:56.804Z,99.90
2022-08-31T21:19:24.868Z,99.90
2022-08-31T21:21:56.207Z,99.90
2022-08-31T21:24:23.153Z,99.90
2022-08-31T21:26:59.074Z,99.90
2022-08-31T21:29:28.200Z,99.90
2022-08-31T21:32:01.221Z,99.90
2022-08-31T21:34:30.675Z,99.90
2022-08-31T21:36:57.472Z,99.90
2022-08-31T21:39:24.905Z,99.90
2022-08-31T21:41:51.931Z,99.90
2022-08-31T21:44:21.887Z,99.90
2022-08-31T21:46:50.892Z,99.90
2022-08-31T21:49:20.164Z,99.90
2022-08-31T21:51:56.034Z,99.90
2022-08-31T21:54:27.224Z,99.90
2022-08-31T21:57:02.162Z,99.90
2022-08-31T21:59:32.617Z,99.90
2022-08-31T22:02:00.929Z,99.90
2022-08-31T22:04:29.647Z,99.90
2022-08-31T22:06:58.040Z,99.90
2022-08-31T22:09:25.417Z,99.90
2022-08-31T22:11:55.425Z,99.90
2022-08-31T22:14:28.764Z,99.90
2022-08-31T22:16:57.813Z,99.90
2022-08-31T22:19:27.257Z,99.90
2022-08-31T22:22:01.150Z,99.90
2022-08-31T22:24:31.524Z,99.90
2022-08-31T22:27:01.582Z,99.90
2022-08-31T22:29:31.889Z,99.90
2022-08-31T22:32:01.652Z,99.90
2022-08-31T22:34:29.192Z,99.90
2022-08-31T22:36:57.040Z,99.90
2022-08-31T22:39:27.988Z,99.90
2022-08-31T22:41:56.652Z,99.90
2022-08-31T22:44:26.019Z,99.90
2022-08-31T22:46:53.781Z,99.90
2022-08-31T22:49:20.675Z,99.90
2022-08-31T22:51:48.361Z,99.90
2022-08-31T22:54:19.184Z,99.90
2022-08-31T22:56:47.513Z,99.90
2022-08-31T22:59:20.973Z,99.90
2022-08-31T23:01:54.844Z,99.90
2022-08-31T23:04:24.743Z,99.90
2022-08-31T23:06:52.707Z,99.90
2022-08-31T23:09:21.830Z,99.90
2022-08-31T23:11:51.883Z,99.90
2022-08-31T23:14:21.152Z,99.90
2022-08-31T23:16:53.669Z,99.90
2022-08-31T23:19:22.916Z,99.90
2022-08-31T23:21:52.970Z,99.90
2022-08-31T23:24:30.821Z,99.90
2022-08-31T23:27:03.932Z,99.90
2022-08-31T23:29:47.116Z,99.90
2022-08-31T23:32:19.897Z,99.90
2022-08-31T23:34:50.851Z,99.90
2022-08-31T23:37:18.381Z,99.90
2022-08-31T23:39:46.611Z,99.90
2022-08-31T23:42:16.435Z,99.90
2022-08-31T23:44:46.370Z,99.90
2022-08-31T23:47:24.399Z,99.90
2022-08-31T23:49:52.364Z,99.90
2022-08-31T23:52:22.262Z,99.90
2022-08-31T23:54:52.174Z,99.90
2022-08-31T23:57:32.122Z,99.90
